sensor_id;sensor_type;location;lat;lon;timestamp;P1;durP1;ratioP1;P2;durP2;ratioP2
13943;SDS011;7044;53.286;8.534;2023-02-28T00:01:19;4.53;;;3.00;;
13943;SDS011;7044;53.286;8.534;2023-02-28T00:03:47;5.67;;;2.90;;
13943;SDS011;7044;53.286;8.534;2023-02-28T00:06:14;4.60;;;2.80;;
13943;SDS011;7044;53.286;8.534;2023-02-28T00:08:42;5.87;;;3.03;;
13943;SDS011;7044;53.286;8.534;2023-02-28T00:11:09;5.63;;;2.60;;
13943;SDS011;7044;53.286;8.534;2023-02-28T00:13:38;8.30;;;3.43;;
13943;SDS011;7044;53.286;8.534;2023-02-28T00:16:08;5.97;;;3.70;;
13943;SDS011;7044;53.286;8.534;2023-02-28T00:18:36;5.47;;;3.93;;
13943;SDS011;7044;53.286;8.534;2023-02-28T00:21:05;9.97;;;4.90;;
13943;SDS011;7044;53.286;8.534;2023-02-28T00:23:32;12.47;;;5.53;;
13943;SDS011;7044;53.286;8.534;2023-02-28T00:26:00;10.83;;;4.53;;
13943;SDS011;7044;53.286;8.534;2023-02-28T00:28:27;7.00;;;3.97;;
13943;SDS011;7044;53.286;8.534;2023-02-28T00:30:54;7.97;;;4.67;;
13943;SDS011;7044;53.286;8.534;2023-02-28T00:33:22;8.13;;;4.00;;
13943;SDS011;7044;53.286;8.534;2023-02-28T00:35:49;7.30;;;3.60;;
13943;SDS011;7044;53.286;8.534;2023-02-28T00:38:17;4.73;;;2.93;;
13943;SDS011;7044;53.286;8.534;2023-02-28T00:40:44;4.53;;;2.67;;
13943;SDS011;7044;53.286;8.534;2023-02-28T00:43:11;5.73;;;3.00;;
13943;SDS011;7044;53.286;8.534;2023-02-28T00:45:38;6.27;;;3.00;;
13943;SDS011;7044;53.286;8.534;2023-02-28T00:48:05;3.83;;;2.70;;
13943;SDS011;7044;53.286;8.534;2023-02-28T00:50:32;5.10;;;2.87;;
13943;SDS011;7044;53.286;8.534;2023-02-28T00:52:59;5.57;;;2.80;;
13943;SDS011;7044;53.286;8.534;2023-02-28T00:55:27;4.67;;;2.90;;
13943;SDS011;7044;53.286;8.534;2023-02-28T00:57:54;5.37;;;3.30;;
13943;SDS011;7044;53.286;8.534;2023-02-28T01:02:47;7.83;;;3.50;;
13943;SDS011;7044;53.286;8.534;2023-02-28T01:05:14;5.27;;;3.30;;
13943;SDS011;7044;53.286;8.534;2023-02-28T01:07:41;5.00;;;3.60;;
13943;SDS011;7044;53.286;8.534;2023-02-28T01:10:08;7.00;;;3.97;;
13943;SDS011;7044;53.286;8.534;2023-02-28T01:12:37;11.13;;;4.47;;
13943;SDS011;7044;53.286;8.534;2023-02-28T01:15:04;9.00;;;4.43;;
13943;SDS011;7044;53.286;8.534;2023-02-28T01:17:32;7.47;;;3.97;;
13943;SDS011;7044;53.286;8.534;2023-02-28T01:19:59;7.47;;;4.40;;
13943;SDS011;7044;53.286;8.534;2023-02-28T01:22:26;8.87;;;5.03;;
13943;SDS011;7044;53.286;8.534;2023-02-28T01:24:53;9.73;;;5.67;;
13943;SDS011;7044;53.286;8.534;2023-02-28T01:27:20;11.17;;;6.37;;
13943;SDS011;7044;53.286;8.534;2023-02-28T01:29:48;12.50;;;6.27;;
13943;SDS011;7044;53.286;8.534;2023-02-28T01:32:16;8.83;;;5.13;;
13943;SDS011;7044;53.286;8.534;2023-02-28T01:34:43;9.17;;;4.97;;
13943;SDS011;7044;53.286;8.534;2023-02-28T01:37:09;7.63;;;4.60;;
13943;SDS011;7044;53.286;8.534;2023-02-28T01:39:36;7.60;;;4.47;;
13943;SDS011;7044;53.286;8.534;2023-02-28T01:42:03;8.00;;;4.33;;
13943;SDS011;7044;53.286;8.534;2023-02-28T01:47:25;5.77;;;3.13;;
13943;SDS011;7044;53.286;8.534;2023-02-28T01:49:55;5.07;;;3.47;;
13943;SDS011;7044;53.286;8.534;2023-02-28T01:52:22;4.90;;;3.47;;
13943;SDS011;7044;53.286;8.534;2023-02-28T01:54:50;9.17;;;3.30;;
13943;SDS011;7044;53.286;8.534;2023-02-28T01:57:20;4.23;;;3.00;;
13943;SDS011;7044;53.286;8.534;2023-02-28T01:59:50;6.53;;;3.50;;
13943;SDS011;7044;53.286;8.534;2023-02-28T02:02:21;6.80;;;3.50;;
13943;SDS011;7044;53.286;8.534;2023-02-28T02:04:50;4.97;;;3.10;;
13943;SDS011;7044;53.286;8.534;2023-02-28T02:07:21;7.43;;;3.70;;
13943;SDS011;7044;53.286;8.534;2023-02-28T02:09:48;5.83;;;3.37;;
13943;SDS011;7044;53.286;8.534;2023-02-28T02:12:18;5.83;;;3.13;;
13943;SDS011;7044;53.286;8.534;2023-02-28T02:14:56;6.60;;;3.70;;
13943;SDS011;7044;53.286;8.534;2023-02-28T02:17:32;6.40;;;3.20;;
13943;SDS011;7044;53.286;8.534;2023-02-28T02:20:11;4.60;;;3.23;;
13943;SDS011;7044;53.286;8.534;2023-02-28T02:23:07;5.00;;;3.20;;
13943;SDS011;7044;53.286;8.534;2023-02-28T02:25:58;5.90;;;3.23;;
13943;SDS011;7044;53.286;8.534;2023-02-28T02:28:43;5.00;;;3.67;;
13943;SDS011;7044;53.286;8.534;2023-02-28T02:31:33;5.23;;;3.97;;
13943;SDS011;7044;53.286;8.534;2023-02-28T02:37:16;5.90;;;3.70;;
13943;SDS011;7044;53.286;8.534;2023-02-28T02:39:59;5.80;;;3.43;;
13943;SDS011;7044;53.286;8.534;2023-02-28T02:42:36;6.63;;;3.43;;
13943;SDS011;7044;53.286;8.534;2023-02-28T02:45:08;5.37;;;3.13;;
13943;SDS011;7044;53.286;8.534;2023-02-28T02:47:38;6.13;;;3.87;;
13943;SDS011;7044;53.286;8.534;2023-02-28T02:50:11;4.80;;;3.53;;
13943;SDS011;7044;53.286;8.534;2023-02-28T02:52:40;7.33;;;4.23;;
13943;SDS011;7044;53.286;8.534;2023-02-28T02:55:12;8.83;;;3.90;;
13943;SDS011;7044;53.286;8.534;2023-02-28T02:57:42;7.97;;;4.13;;
13943;SDS011;7044;53.286;8.534;2023-02-28T03:00:13;6.20;;;3.90;;
13943;SDS011;7044;53.286;8.534;2023-02-28T03:02:41;8.50;;;4.20;;
13943;SDS011;7044;53.286;8.534;2023-02-28T03:05:14;6.50;;;3.77;;
13943;SDS011;7044;53.286;8.534;2023-02-28T03:07:45;7.17;;;3.87;;
13943;SDS011;7044;53.286;8.534;2023-02-28T03:10:28;6.87;;;3.70;;
13943;SDS011;7044;53.286;8.534;2023-02-28T03:13:00;6.57;;;3.83;;
13943;SDS011;7044;53.286;8.534;2023-02-28T03:15:54;5.97;;;3.70;;
13943;SDS011;7044;53.286;8.534;2023-02-28T03:18:34;6.37;;;4.17;;
13943;SDS011;7044;53.286;8.534;2023-02-28T03:21:09;5.80;;;3.43;;
13943;SDS011;7044;53.286;8.534;2023-02-28T03:23:45;5.47;;;3.70;;
13943;SDS011;7044;53.286;8.534;2023-02-28T03:26:21;4.27;;;3.77;;
13943;SDS011;7044;53.286;8.534;2023-02-28T03:28:52;6.27;;;3.77;;
13943;SDS011;7044;53.286;8.534;2023-02-28T03:31:26;5.83;;;3.70;;
13943;SDS011;7044;53.286;8.534;2023-02-28T03:33:59;6.37;;;3.93;;
13943;SDS011;7044;53.286;8.534;2023-02-28T03:36:30;5.80;;;3.47;;
13943;SDS011;7044;53.286;8.534;2023-02-28T03:39:09;6.07;;;3.67;;
13943;SDS011;7044;53.286;8.534;2023-02-28T03:41:42;7.00;;;3.47;;
13943;SDS011;7044;53.286;8.534;2023-02-28T03:44:13;5.23;;;3.60;;
13943;SDS011;7044;53.286;8.534;2023-02-28T03:46:43;6.27;;;3.90;;
13943;SDS011;7044;53.286;8.534;2023-02-28T03:49:15;6.80;;;3.77;;
13943;SDS011;7044;53.286;8.534;2023-02-28T03:51:47;4.77;;;3.63;;
13943;SDS011;7044;53.286;8.534;2023-02-28T03:54:17;7.67;;;3.80;;
13943;SDS011;7044;53.286;8.534;2023-02-28T03:56:48;8.30;;;4.07;;
13943;SDS011;7044;53.286;8.534;2023-02-28T03:59:20;7.93;;;4.17;;
13943;SDS011;7044;53.286;8.534;2023-02-28T04:01:51;11.47;;;3.73;;
13943;SDS011;7044;53.286;8.534;2023-02-28T04:04:20;8.43;;;4.03;;
13943;SDS011;7044;53.286;8.534;2023-02-28T04:06:50;6.10;;;3.70;;
13943;SDS011;7044;53.286;8.534;2023-02-28T04:09:18;5.07;;;3.23;;
13943;SDS011;7044;53.286;8.534;2023-02-28T04:11:46;5.13;;;3.10;;
13943;SDS011;7044;53.286;8.534;2023-02-28T04:14:17;7.27;;;3.53;;
13943;SDS011;7044;53.286;8.534;2023-02-28T04:16:45;6.00;;;3.70;;
13943;SDS011;7044;53.286;8.534;2023-02-28T04:19:12;6.63;;;3.30;;
13943;SDS011;7044;53.286;8.534;2023-02-28T04:21:40;6.10;;;3.47;;
13943;SDS011;7044;53.286;8.534;2023-02-28T04:24:11;4.87;;;3.13;;
13943;SDS011;7044;53.286;8.534;2023-02-28T04:26:40;4.20;;;2.87;;
13943;SDS011;7044;53.286;8.534;2023-02-28T04:29:09;5.67;;;3.17;;
13943;SDS011;7044;53.286;8.534;2023-02-28T04:31:36;9.70;;;3.33;;
13943;SDS011;7044;53.286;8.534;2023-02-28T04:34:03;4.93;;;2.97;;
13943;SDS011;7044;53.286;8.534;2023-02-28T04:36:30;5.60;;;3.23;;
13943;SDS011;7044;53.286;8.534;2023-02-28T04:38:58;5.27;;;3.23;;
13943;SDS011;7044;53.286;8.534;2023-02-28T04:41:26;5.00;;;3.30;;
13943;SDS011;7044;53.286;8.534;2023-02-28T04:43:53;5.53;;;2.87;;
13943;SDS011;7044;53.286;8.534;2023-02-28T04:46:21;5.00;;;3.20;;
13943;SDS011;7044;53.286;8.534;2023-02-28T04:48:48;4.10;;;3.00;;
13943;SDS011;7044;53.286;8.534;2023-02-28T04:51:16;8.43;;;2.90;;
13943;SDS011;7044;53.286;8.534;2023-02-28T04:53:44;5.90;;;3.13;;
13943;SDS011;7044;53.286;8.534;2023-02-28T04:56:13;5.17;;;2.90;;
13943;SDS011;7044;53.286;8.534;2023-02-28T04:58:43;5.13;;;2.80;;
13943;SDS011;7044;53.286;8.534;2023-02-28T05:01:17;7.20;;;3.07;;
13943;SDS011;7044;53.286;8.534;2023-02-28T05:03:46;5.53;;;3.00;;
13943;SDS011;7044;53.286;8.534;2023-02-28T05:06:14;5.60;;;2.73;;
13943;SDS011;7044;53.286;8.534;2023-02-28T05:08:41;6.70;;;3.37;;
13943;SDS011;7044;53.286;8.534;2023-02-28T05:11:11;6.90;;;2.97;;
13943;SDS011;7044;53.286;8.534;2023-02-28T05:13:41;15.07;;;3.03;;
13943;SDS011;7044;53.286;8.534;2023-02-28T05:16:09;6.50;;;3.13;;
13943;SDS011;7044;53.286;8.534;2023-02-28T05:18:36;6.67;;;3.00;;
13943;SDS011;7044;53.286;8.534;2023-02-28T05:21:03;4.47;;;3.13;;
13943;SDS011;7044;53.286;8.534;2023-02-28T05:23:30;5.03;;;3.50;;
13943;SDS011;7044;53.286;8.534;2023-02-28T05:25:57;4.63;;;3.10;;
13943;SDS011;7044;53.286;8.534;2023-02-28T05:28:24;10.00;;;4.27;;
13943;SDS011;7044;53.286;8.534;2023-02-28T05:30:52;6.10;;;3.90;;
13943;SDS011;7044;53.286;8.534;2023-02-28T05:33:19;6.03;;;4.20;;
13943;SDS011;7044;53.286;8.534;2023-02-28T05:35:46;5.20;;;3.73;;
13943;SDS011;7044;53.286;8.534;2023-02-28T05:38:13;7.67;;;4.00;;
13943;SDS011;7044;53.286;8.534;2023-02-28T05:40:40;5.40;;;3.47;;
13943;SDS011;7044;53.286;8.534;2023-02-28T05:43:08;6.70;;;3.87;;
13943;SDS011;7044;53.286;8.534;2023-02-28T05:45:37;5.03;;;3.97;;
13943;SDS011;7044;53.286;8.534;2023-02-28T05:48:05;6.70;;;4.40;;
13943;SDS011;7044;53.286;8.534;2023-02-28T05:50:33;6.43;;;4.20;;
13943;SDS011;7044;53.286;8.534;2023-02-28T05:53:00;8.50;;;4.77;;
13943;SDS011;7044;53.286;8.534;2023-02-28T05:55:27;9.60;;;4.40;;
13943;SDS011;7044;53.286;8.534;2023-02-28T05:57:54;11.27;;;4.20;;
13943;SDS011;7044;53.286;8.534;2023-02-28T06:00:21;16.97;;;6.70;;
13943;SDS011;7044;53.286;8.534;2023-02-28T06:02:49;13.13;;;6.90;;
13943;SDS011;7044;53.286;8.534;2023-02-28T06:05:17;12.10;;;6.77;;
13943;SDS011;7044;53.286;8.534;2023-02-28T06:07:44;12.20;;;5.53;;
13943;SDS011;7044;53.286;8.534;2023-02-28T06:10:12;8.33;;;5.23;;
13943;SDS011;7044;53.286;8.534;2023-02-28T06:12:39;12.50;;;5.70;;
13943;SDS011;7044;53.286;8.534;2023-02-28T06:15:07;16.27;;;7.43;;
13943;SDS011;7044;53.286;8.534;2023-02-28T06:17:37;10.27;;;6.03;;
13943;SDS011;7044;53.286;8.534;2023-02-28T06:20:04;8.60;;;4.93;;
13943;SDS011;7044;53.286;8.534;2023-02-28T06:22:34;10.50;;;5.37;;
13943;SDS011;7044;53.286;8.534;2023-02-28T06:25:01;9.00;;;4.90;;
13943;SDS011;7044;53.286;8.534;2023-02-28T06:27:28;7.37;;;4.60;;
13943;SDS011;7044;53.286;8.534;2023-02-28T06:29:56;10.90;;;5.20;;
13943;SDS011;7044;53.286;8.534;2023-02-28T06:32:23;6.80;;;4.40;;
13943;SDS011;7044;53.286;8.534;2023-02-28T06:34:50;8.37;;;5.13;;
13943;SDS011;7044;53.286;8.534;2023-02-28T06:37:17;7.27;;;4.40;;
13943;SDS011;7044;53.286;8.534;2023-02-28T06:39:45;4.70;;;3.70;;
13943;SDS011;7044;53.286;8.534;2023-02-28T06:42:12;6.93;;;4.67;;
13943;SDS011;7044;53.286;8.534;2023-02-28T06:44:40;8.80;;;4.10;;
13943;SDS011;7044;53.286;8.534;2023-02-28T06:47:08;7.27;;;4.90;;
13943;SDS011;7044;53.286;8.534;2023-02-28T06:49:35;6.47;;;3.80;;
13943;SDS011;7044;53.286;8.534;2023-02-28T06:52:04;7.93;;;4.73;;
13943;SDS011;7044;53.286;8.534;2023-02-28T06:54:31;15.47;;;7.90;;
13943;SDS011;7044;53.286;8.534;2023-02-28T06:56:59;25.33;;;12.37;;
13943;SDS011;7044;53.286;8.534;2023-02-28T06:59:26;9.43;;;5.87;;
13943;SDS011;7044;53.286;8.534;2023-02-28T07:01:53;14.67;;;6.97;;
13943;SDS011;7044;53.286;8.534;2023-02-28T07:04:20;17.23;;;9.00;;
13943;SDS011;7044;53.286;8.534;2023-02-28T07:06:47;18.17;;;7.97;;
13943;SDS011;7044;53.286;8.534;2023-02-28T07:09:14;12.13;;;7.53;;
13943;SDS011;7044;53.286;8.534;2023-02-28T07:11:41;11.37;;;6.07;;
13943;SDS011;7044;53.286;8.534;2023-02-28T07:14:10;11.93;;;5.70;;
13943;SDS011;7044;53.286;8.534;2023-02-28T07:16:37;8.97;;;6.07;;
13943;SDS011;7044;53.286;8.534;2023-02-28T07:19:04;9.00;;;5.90;;
13943;SDS011;7044;53.286;8.534;2023-02-28T07:21:31;9.30;;;5.70;;
13943;SDS011;7044;53.286;8.534;2023-02-28T07:23:57;5.73;;;4.73;;
13943;SDS011;7044;53.286;8.534;2023-02-28T07:26:24;5.57;;;4.23;;
13943;SDS011;7044;53.286;8.534;2023-02-28T07:28:51;6.03;;;4.30;;
13943;SDS011;7044;53.286;8.534;2023-02-28T07:31:20;9.13;;;5.07;;
13943;SDS011;7044;53.286;8.534;2023-02-28T07:33:47;6.83;;;4.30;;
13943;SDS011;7044;53.286;8.534;2023-02-28T07:36:15;7.03;;;4.83;;
13943;SDS011;7044;53.286;8.534;2023-02-28T07:38:43;6.07;;;4.03;;
13943;SDS011;7044;53.286;8.534;2023-02-28T07:41:13;7.30;;;4.33;;
13943;SDS011;7044;53.286;8.534;2023-02-28T07:43:40;5.37;;;4.00;;
13943;SDS011;7044;53.286;8.534;2023-02-28T07:46:07;10.20;;;4.03;;
13943;SDS011;7044;53.286;8.534;2023-02-28T07:48:37;7.47;;;4.13;;
13943;SDS011;7044;53.286;8.534;2023-02-28T07:51:04;5.57;;;3.93;;
13943;SDS011;7044;53.286;8.534;2023-02-28T07:53:31;5.93;;;4.27;;
13943;SDS011;7044;53.286;8.534;2023-02-28T07:55:58;7.70;;;4.20;;
13943;SDS011;7044;53.286;8.534;2023-02-28T07:58:27;9.97;;;4.63;;
13943;SDS011;7044;53.286;8.534;2023-02-28T08:00:54;6.30;;;4.30;;
13943;SDS011;7044;53.286;8.534;2023-02-28T08:03:22;5.50;;;3.77;;
13943;SDS011;7044;53.286;8.534;2023-02-28T08:05:51;4.80;;;3.43;;
13943;SDS011;7044;53.286;8.534;2023-02-28T08:08:18;7.33;;;3.90;;
13943;SDS011;7044;53.286;8.534;2023-02-28T08:10:45;4.83;;;3.40;;
13943;SDS011;7044;53.286;8.534;2023-02-28T08:13:12;4.80;;;3.50;;
13943;SDS011;7044;53.286;8.534;2023-02-28T08:15:40;4.83;;;3.83;;
13943;SDS011;7044;53.286;8.534;2023-02-28T08:18:07;5.27;;;3.10;;
13943;SDS011;7044;53.286;8.534;2023-02-28T08:20:33;6.50;;;3.60;;
13943;SDS011;7044;53.286;8.534;2023-02-28T08:23:02;4.33;;;3.40;;
13943;SDS011;7044;53.286;8.534;2023-02-28T08:25:29;4.50;;;3.40;;
13943;SDS011;7044;53.286;8.534;2023-02-28T08:27:55;5.47;;;3.33;;
13943;SDS011;7044;53.286;8.534;2023-02-28T08:30:22;5.10;;;3.53;;
13943;SDS011;7044;53.286;8.534;2023-02-28T08:32:49;7.07;;;3.90;;
13943;SDS011;7044;53.286;8.534;2023-02-28T08:35:16;6.00;;;3.70;;
13943;SDS011;7044;53.286;8.534;2023-02-28T08:37:43;5.50;;;3.20;;
13943;SDS011;7044;53.286;8.534;2023-02-28T08:40:11;6.13;;;3.07;;
13943;SDS011;7044;53.286;8.534;2023-02-28T08:42:43;8.63;;;3.20;;
13943;SDS011;7044;53.286;8.534;2023-02-28T08:45:10;5.57;;;2.73;;
13943;SDS011;7044;53.286;8.534;2023-02-28T08:47:37;5.90;;;2.70;;
13943;SDS011;7044;53.286;8.534;2023-02-28T08:50:04;4.43;;;2.97;;
13943;SDS011;7044;53.286;8.534;2023-02-28T08:52:32;8.13;;;2.87;;
13943;SDS011;7044;53.286;8.534;2023-02-28T08:54:59;4.80;;;2.63;;
13943;SDS011;7044;53.286;8.534;2023-02-28T08:57:27;3.23;;;2.50;;
13943;SDS011;7044;53.286;8.534;2023-02-28T08:59:54;5.13;;;1.90;;
13943;SDS011;7044;53.286;8.534;2023-02-28T09:02:21;4.77;;;2.07;;
13943;SDS011;7044;53.286;8.534;2023-02-28T09:04:47;7.80;;;2.20;;
13943;SDS011;7044;53.286;8.534;2023-02-28T09:07:14;4.80;;;2.77;;
13943;SDS011;7044;53.286;8.534;2023-02-28T09:09:41;3.27;;;2.43;;
13943;SDS011;7044;53.286;8.534;2023-02-28T09:12:18;7.33;;;2.80;;
13943;SDS011;7044;53.286;8.534;2023-02-28T09:14:47;2.87;;;2.23;;
13943;SDS011;7044;53.286;8.534;2023-02-28T09:17:13;3.83;;;2.30;;
13943;SDS011;7044;53.286;8.534;2023-02-28T09:19:41;5.27;;;2.60;;
13943;SDS011;7044;53.286;8.534;2023-02-28T09:22:08;2.77;;;2.40;;
13943;SDS011;7044;53.286;8.534;2023-02-28T09:24:35;5.90;;;3.13;;
13943;SDS011;7044;53.286;8.534;2023-02-28T09:27:03;4.97;;;3.00;;
13943;SDS011;7044;53.286;8.534;2023-02-28T09:29:30;3.40;;;2.50;;
13943;SDS011;7044;53.286;8.534;2023-02-28T09:31:59;5.63;;;3.00;;
13943;SDS011;7044;53.286;8.534;2023-02-28T09:34:26;5.07;;;2.93;;
13943;SDS011;7044;53.286;8.534;2023-02-28T09:36:55;3.00;;;2.00;;
13943;SDS011;7044;53.286;8.534;2023-02-28T09:39:23;5.13;;;2.17;;
13943;SDS011;7044;53.286;8.534;2023-02-28T09:41:51;5.00;;;2.63;;
13943;SDS011;7044;53.286;8.534;2023-02-28T09:44:20;4.93;;;2.57;;
13943;SDS011;7044;53.286;8.534;2023-02-28T09:46:56;4.73;;;2.63;;
13943;SDS011;7044;53.286;8.534;2023-02-28T09:49:28;4.07;;;2.30;;
13943;SDS011;7044;53.286;8.534;2023-02-28T09:52:03;9.47;;;2.47;;
13943;SDS011;7044;53.286;8.534;2023-02-28T09:54:34;3.73;;;2.23;;
13943;SDS011;7044;53.286;8.534;2023-02-28T09:57:08;3.63;;;1.63;;
13943;SDS011;7044;53.286;8.534;2023-02-28T09:59:48;2.70;;;1.73;;
13943;SDS011;7044;53.286;8.534;2023-02-28T10:02:41;1.47;;;1.20;;
13943;SDS011;7044;53.286;8.534;2023-02-28T10:05:14;1.80;;;1.30;;
13943;SDS011;7044;53.286;8.534;2023-02-28T10:07:50;5.03;;;1.83;;
13943;SDS011;7044;53.286;8.534;2023-02-28T10:10:33;1.20;;;1.10;;
13943;SDS011;7044;53.286;8.534;2023-02-28T10:13:05;1.93;;;1.53;;
13943;SDS011;7044;53.286;8.534;2023-02-28T10:15:38;3.90;;;1.50;;
13943;SDS011;7044;53.286;8.534;2023-02-28T10:18:09;3.10;;;1.60;;
13943;SDS011;7044;53.286;8.534;2023-02-28T10:20:42;2.30;;;1.43;;
13943;SDS011;7044;53.286;8.534;2023-02-28T10:23:12;2.43;;;1.40;;
13943;SDS011;7044;53.286;8.534;2023-02-28T10:25:44;1.50;;;1.40;;
13943;SDS011;7044;53.286;8.534;2023-02-28T10:28:16;3.30;;;1.60;;
13943;SDS011;7044;53.286;8.534;2023-02-28T10:30:45;2.93;;;1.23;;
13943;SDS011;7044;53.286;8.534;2023-02-28T10:33:17;3.87;;;2.00;;
13943;SDS011;7044;53.286;8.534;2023-02-28T10:35:48;3.87;;;1.73;;
13943;SDS011;7044;53.286;8.534;2023-02-28T10:38:16;5.40;;;1.73;;
13943;SDS011;7044;53.286;8.534;2023-02-28T10:40:45;3.53;;;1.40;;
13943;SDS011;7044;53.286;8.534;2023-02-28T10:43:19;3.27;;;1.97;;
13943;SDS011;7044;53.286;8.534;2023-02-28T10:45:53;4.50;;;1.80;;
13943;SDS011;7044;53.286;8.534;2023-02-28T10:48:27;8.30;;;1.77;;
13943;SDS011;7044;53.286;8.534;2023-02-28T10:50:58;6.63;;;2.43;;
13943;SDS011;7044;53.286;8.534;2023-02-28T10:53:30;4.40;;;1.80;;
13943;SDS011;7044;53.286;8.534;2023-02-28T10:56:00;2.40;;;1.73;;
13943;SDS011;7044;53.286;8.534;2023-02-28T10:58:29;1.60;;;1.50;;
13943;SDS011;7044;53.286;8.534;2023-02-28T11:00:58;2.13;;;1.80;;
13943;SDS011;7044;53.286;8.534;2023-02-28T11:03:30;4.37;;;2.23;;
13943;SDS011;7044;53.286;8.534;2023-02-28T11:05:58;4.43;;;2.50;;
13943;SDS011;7044;53.286;8.534;2023-02-28T11:08:30;2.17;;;1.90;;
13943;SDS011;7044;53.286;8.534;2023-02-28T11:10:58;2.47;;;1.87;;
13943;SDS011;7044;53.286;8.534;2023-02-28T11:13:31;11.20;;;2.47;;
13943;SDS011;7044;53.286;8.534;2023-02-28T11:16:00;4.20;;;1.63;;
13943;SDS011;7044;53.286;8.534;2023-02-28T11:18:33;1.73;;;1.60;;
13943;SDS011;7044;53.286;8.534;2023-02-28T11:21:04;3.07;;;1.80;;
13943;SDS011;7044;53.286;8.534;2023-02-28T11:23:32;5.30;;;1.70;;
13943;SDS011;7044;53.286;8.534;2023-02-28T11:26:02;3.23;;;1.63;;
13943;SDS011;7044;53.286;8.534;2023-02-28T11:28:35;6.37;;;2.17;;
13943;SDS011;7044;53.286;8.534;2023-02-28T11:31:05;2.23;;;1.90;;
13943;SDS011;7044;53.286;8.534;2023-02-28T11:33:43;4.00;;;1.77;;
13943;SDS011;7044;53.286;8.534;2023-02-28T11:36:14;4.67;;;1.43;;
13943;SDS011;7044;53.286;8.534;2023-02-28T11:38:44;1.87;;;1.47;;
13943;SDS011;7044;53.286;8.534;2023-02-28T11:41:18;2.20;;;1.60;;
13943;SDS011;7044;53.286;8.534;2023-02-28T11:44:10;2.57;;;1.67;;
13943;SDS011;7044;53.286;8.534;2023-02-28T11:46:50;6.40;;;2.20;;
13943;SDS011;7044;53.286;8.534;2023-02-28T11:49:24;2.47;;;1.50;;
13943;SDS011;7044;53.286;8.534;2023-02-28T11:52:04;2.63;;;1.40;;
13943;SDS011;7044;53.286;8.534;2023-02-28T11:54:46;5.17;;;2.00;;
13943;SDS011;7044;53.286;8.534;2023-02-28T11:57:28;2.27;;;1.60;;
13943;SDS011;7044;53.286;8.534;2023-02-28T12:00:03;2.27;;;1.50;;
13943;SDS011;7044;53.286;8.534;2023-02-28T12:02:46;1.90;;;1.57;;
13943;SDS011;7044;53.286;8.534;2023-02-28T12:05:26;1.97;;;1.40;;
13943;SDS011;7044;53.286;8.534;2023-02-28T12:08:01;3.57;;;1.67;;
13943;SDS011;7044;53.286;8.534;2023-02-28T12:10:42;2.63;;;1.73;;
13943;SDS011;7044;53.286;8.534;2023-02-28T12:13:20;6.77;;;1.67;;
13943;SDS011;7044;53.286;8.534;2023-02-28T12:15:59;4.37;;;2.00;;
13943;SDS011;7044;53.286;8.534;2023-02-28T12:18:48;2.70;;;1.57;;
13943;SDS011;7044;53.286;8.534;2023-02-28T12:21:30;3.97;;;1.80;;
13943;SDS011;7044;53.286;8.534;2023-02-28T12:27:05;9.57;;;3.87;;
13943;SDS011;7044;53.286;8.534;2023-02-28T12:29:38;2.30;;;1.63;;
13943;SDS011;7044;53.286;8.534;2023-02-28T12:32:12;2.73;;;1.77;;
13943;SDS011;7044;53.286;8.534;2023-02-28T12:34:44;2.00;;;1.50;;
13943;SDS011;7044;53.286;8.534;2023-02-28T12:37:17;4.47;;;2.20;;
13943;SDS011;7044;53.286;8.534;2023-02-28T12:39:50;2.40;;;1.83;;
13943;SDS011;7044;53.286;8.534;2023-02-28T12:42:23;1.93;;;1.60;;
13943;SDS011;7044;53.286;8.534;2023-02-28T12:44:54;12.73;;;2.20;;
13943;SDS011;7044;53.286;8.534;2023-02-28T12:47:24;3.03;;;1.83;;
13943;SDS011;7044;53.286;8.534;2023-02-28T12:49:52;3.03;;;1.80;;
13943;SDS011;7044;53.286;8.534;2023-02-28T12:52:25;5.57;;;2.20;;
13943;SDS011;7044;53.286;8.534;2023-02-28T12:54:59;3.23;;;1.90;;
13943;SDS011;7044;53.286;8.534;2023-02-28T12:57:32;2.50;;;1.60;;
13943;SDS011;7044;53.286;8.534;2023-02-28T13:00:03;4.90;;;1.80;;
13943;SDS011;7044;53.286;8.534;2023-02-28T13:02:44;2.83;;;1.67;;
13943;SDS011;7044;53.286;8.534;2023-02-28T13:05:35;3.83;;;2.03;;
13943;SDS011;7044;53.286;8.534;2023-02-28T13:08:39;3.63;;;1.83;;
13943;SDS011;7044;53.286;8.534;2023-02-28T13:11:31;2.33;;;1.80;;
13943;SDS011;7044;53.286;8.534;2023-02-28T13:14:01;2.80;;;1.67;;
13943;SDS011;7044;53.286;8.534;2023-02-28T13:19:26;2.70;;;1.70;;
13943;SDS011;7044;53.286;8.534;2023-02-28T13:21:55;2.53;;;1.87;;
13943;SDS011;7044;53.286;8.534;2023-02-28T13:24:44;2.50;;;1.70;;
13943;SDS011;7044;53.286;8.534;2023-02-28T13:33:26;4.70;;;2.60;;
13943;SDS011;7044;53.286;8.534;2023-02-28T13:36:06;3.67;;;2.00;;
13943;SDS011;7044;53.286;8.534;2023-02-28T13:38:49;2.97;;;2.17;;
13943;SDS011;7044;53.286;8.534;2023-02-28T13:44:13;2.17;;;1.60;;
13943;SDS011;7044;53.286;8.534;2023-02-28T13:49:49;5.53;;;1.90;;
13943;SDS011;7044;53.286;8.534;2023-02-28T13:52:18;7.10;;;2.07;;
13943;SDS011;7044;53.286;8.534;2023-02-28T13:54:54;2.00;;;1.70;;
13943;SDS011;7044;53.286;8.534;2023-02-28T13:57:44;2.37;;;1.60;;
13943;SDS011;7044;53.286;8.534;2023-02-28T14:00:28;1.77;;;1.53;;
13943;SDS011;7044;53.286;8.534;2023-02-28T14:03:10;1.83;;;1.20;;
13943;SDS011;7044;53.286;8.534;2023-02-28T14:05:44;3.27;;;1.40;;
13943;SDS011;7044;53.286;8.534;2023-02-28T14:08:12;3.00;;;1.57;;
13943;SDS011;7044;53.286;8.534;2023-02-28T14:10:43;2.40;;;1.40;;
13943;SDS011;7044;53.286;8.534;2023-02-28T14:13:17;1.83;;;1.43;;
13943;SDS011;7044;53.286;8.534;2023-02-28T14:16:09;3.23;;;1.37;;
13943;SDS011;7044;53.286;8.534;2023-02-28T14:18:38;2.73;;;1.70;;
13943;SDS011;7044;53.286;8.534;2023-02-28T14:21:09;1.77;;;1.37;;
13943;SDS011;7044;53.286;8.534;2023-02-28T14:23:55;2.10;;;1.60;;
13943;SDS011;7044;53.286;8.534;2023-02-28T14:26:55;2.60;;;1.57;;
13943;SDS011;7044;53.286;8.534;2023-02-28T14:29:50;2.43;;;1.60;;
13943;SDS011;7044;53.286;8.534;2023-02-28T14:32:31;1.70;;;1.50;;
13943;SDS011;7044;53.286;8.534;2023-02-28T14:35:05;3.47;;;1.53;;
13943;SDS011;7044;53.286;8.534;2023-02-28T14:37:44;1.20;;;1.10;;
13943;SDS011;7044;53.286;8.534;2023-02-28T14:40:12;1.63;;;1.53;;
13943;SDS011;7044;53.286;8.534;2023-02-28T14:42:46;5.67;;;1.47;;
13943;SDS011;7044;53.286;8.534;2023-02-28T14:45:19;1.70;;;1.53;;
13943;SDS011;7044;53.286;8.534;2023-02-28T14:47:47;1.80;;;1.50;;
13943;SDS011;7044;53.286;8.534;2023-02-28T14:50:17;2.07;;;1.63;;
13943;SDS011;7044;53.286;8.534;2023-02-28T14:52:46;5.90;;;2.80;;
13943;SDS011;7044;53.286;8.534;2023-02-28T14:55:14;8.70;;;2.80;;
13943;SDS011;7044;53.286;8.534;2023-02-28T14:57:50;3.63;;;2.17;;
13943;SDS011;7044;53.286;8.534;2023-02-28T15:00:22;5.17;;;1.63;;
13943;SDS011;7044;53.286;8.534;2023-02-28T15:02:51;3.20;;;1.60;;
13943;SDS011;7044;53.286;8.534;2023-02-28T15:05:23;2.80;;;2.17;;
13943;SDS011;7044;53.286;8.534;2023-02-28T15:08:06;3.40;;;1.43;;
13943;SDS011;7044;53.286;8.534;2023-02-28T15:10:37;1.97;;;1.60;;
13943;SDS011;7044;53.286;8.534;2023-02-28T15:13:06;3.33;;;1.33;;
13943;SDS011;7044;53.286;8.534;2023-02-28T15:15:43;3.30;;;2.03;;
13943;SDS011;7044;53.286;8.534;2023-02-28T15:18:21;6.70;;;2.90;;
13943;SDS011;7044;53.286;8.534;2023-02-28T15:20:55;3.30;;;1.60;;
13943;SDS011;7044;53.286;8.534;2023-02-28T15:23:23;2.43;;;1.60;;
13943;SDS011;7044;53.286;8.534;2023-02-28T15:25:51;4.17;;;2.63;;
13943;SDS011;7044;53.286;8.534;2023-02-28T15:28:20;6.67;;;3.77;;
13943;SDS011;7044;53.286;8.534;2023-02-28T15:30:55;6.53;;;3.50;;
13943;SDS011;7044;53.286;8.534;2023-02-28T15:33:23;3.23;;;1.87;;
13943;SDS011;7044;53.286;8.534;2023-02-28T15:36:03;3.17;;;1.67;;
13943;SDS011;7044;53.286;8.534;2023-02-28T15:38:37;2.10;;;1.90;;
13943;SDS011;7044;53.286;8.534;2023-02-28T15:41:03;3.47;;;1.97;;
13943;SDS011;7044;53.286;8.534;2023-02-28T15:43:34;1.73;;;1.63;;
13943;SDS011;7044;53.286;8.534;2023-02-28T15:46:03;2.73;;;1.30;;
13943;SDS011;7044;53.286;8.534;2023-02-28T15:48:32;2.03;;;1.30;;
13943;SDS011;7044;53.286;8.534;2023-02-28T15:51:02;2.37;;;1.40;;